To NAV CANADA Home Page Login to a new session Search on AWWS site Feedback and Comments Disclaimer Vers la page française équivalente Tips FAQ What's new on the site To the Forecasts and Observations / NOTAM section To "File a Flight Plan" website Publications and other links Update of the User's profile FIC Telephone Numbers My Weather Data Folder Route Weather Data Regional Weather Data Local Weather Data To the Forecasts and Observations / NOTAM section
Request Generated 01/17/2017 at 04:53:36 UTC . Weather information available at that time is displayed.

METAR/TAF

WHITEHORSE/ERIK NIELSEN INTL/YT    

METAR CYXY 170400Z 13008G17KT 15SM DRSN FEW060 SCT180 01/M03 A2871
RMK SC1CI2 SLP751 DENSITY ALT 2500FT=
METAR CYXY 170300Z 16024KT 15SM DRSN FEW060 SCT180 02/M03 A2868 RMK
SC2CI1 PRESFR SLP742 DENSITY ALT 2700FT=
METAR CYXY 170200Z 16020KT 15SM DRSN SCT068 BKN180 02/M02 A2871 RMK
AC3CI3 SLP751 DENSITY ALT 2600FT=

TAF CYXY 162338Z 1700/1712 16015G25KT P6SM SCT070 TEMPO 1700/1712
FEW008 BKN070
BECMG 1705/1707 16010KT
RMK NXT FCST BY 170600Z=
Your time UTC time
Weather data provided by Environment Canada and NAV CANADA